createdAt,value
2022-10-04T00:01:56.225Z,7.85
2022-10-04T00:04:25.014Z,7.03
2022-10-04T00:07:14.696Z,7.03
2022-10-04T00:09:46.222Z,7.25
2022-10-04T00:12:18.650Z,7.30
2022-10-04T00:14:45.123Z,6.68
2022-10-04T00:17:13.616Z,8.00
2022-10-04T00:19:42.313Z,8.63
2022-10-04T00:22:12.423Z,8.55
2022-10-04T00:24:58.667Z,7.35
2022-10-04T00:27:26.078Z,7.50
2022-10-04T00:30:01.447Z,7.25
2022-10-04T00:34:54.208Z,7.82
2022-10-04T00:39:57.184Z,8.10
2022-10-04T00:42:31.516Z,8.95
2022-10-04T00:45:00.796Z,8.33
2022-10-04T00:47:31.591Z,7.57
2022-10-04T00:50:20.115Z,7.75
2022-10-04T00:52:49.967Z,7.75
2022-10-04T00:55:42.534Z,8.20
2022-10-04T00:58:15.684Z,8.77
2022-10-04T01:00:43.409Z,8.07
2022-10-04T01:03:16.130Z,9.25
2022-10-04T01:05:44.963Z,8.10
2022-10-04T01:08:15.896Z,7.90
2022-10-04T01:10:45.834Z,8.18
2022-10-04T01:13:19.924Z,8.60
2022-10-04T01:15:59.292Z,8.15
2022-10-04T01:18:25.596Z,8.15
2022-10-04T01:20:57.666Z,7.78
2022-10-04T01:23:37.887Z,8.77
2022-10-04T01:26:30.302Z,8.13
2022-10-04T01:28:58.903Z,8.45
2022-10-04T01:31:26.349Z,7.22
2022-10-04T01:33:53.719Z,8.32
2022-10-04T01:36:20.356Z,7.45
2022-10-04T01:38:46.974Z,8.25
2022-10-04T01:41:14.547Z,7.28
2022-10-04T01:43:43.182Z,7.18
2022-10-04T01:46:15.272Z,8.50
2022-10-04T01:48:42.546Z,8.13
2022-10-04T01:51:13.599Z,9.25
2022-10-04T01:53:51.594Z,8.93
2022-10-04T01:56:19.946Z,8.05
2022-10-04T01:58:48.383Z,9.20
2022-10-04T02:01:18.928Z,7.60
2022-10-04T02:03:52.301Z,8.93
2022-10-04T02:06:19.506Z,7.90
2022-10-04T02:08:47.926Z,7.82
2022-10-04T02:11:17.030Z,8.65
2022-10-04T02:13:45.737Z,7.97
2022-10-04T02:16:12.584Z,8.82
2022-10-04T02:18:40.231Z,8.30
2022-10-04T02:21:07.338Z,7.80
2022-10-04T02:23:35.251Z,7.75
2022-10-04T02:26:08.777Z,8.13
2022-10-04T02:28:35.817Z,8.20
2022-10-04T02:31:21.260Z,8.07
2022-10-04T02:33:49.506Z,8.63
2022-10-04T02:36:16.296Z,8.43
2022-10-04T02:39:01.636Z,7.25
2022-10-04T02:41:33.800Z,7.47
2022-10-04T02:44:04.783Z,8.23
2022-10-04T02:46:34.145Z,7.40
2022-10-04T02:49:12.222Z,8.63
2022-10-04T02:51:40.964Z,7.50
2022-10-04T02:54:14.509Z,7.78
2022-10-04T02:56:41.898Z,7.88
2022-10-04T02:59:12.648Z,8.00
2022-10-04T03:01:47.475Z,7.60
2022-10-04T03:04:15.045Z,7.68
2022-10-04T03:06:41.696Z,6.47
2022-10-04T03:09:08.156Z,7.13
2022-10-04T03:11:35.813Z,6.53
2022-10-04T03:14:03.977Z,8.52
2022-10-04T03:16:34.421Z,9.82
2022-10-04T03:19:00.967Z,8.18
2022-10-04T03:21:27.519Z,6.72
2022-10-04T03:23:53.844Z,8.63
2022-10-04T03:26:29.663Z,7.50
2022-10-04T03:28:57.896Z,8.63
2022-10-04T03:31:27.781Z,9.23
2022-10-04T03:33:55.490Z,7.45
2022-10-04T03:36:22.958Z,8.02
2022-10-04T03:38:52.318Z,8.38
2022-10-04T03:41:18.751Z,7.85
2022-10-04T03:43:45.853Z,9.13
2022-10-04T03:46:12.783Z,8.88
2022-10-04T03:48:50.191Z,8.27
2022-10-04T03:51:18.007Z,7.00
2022-10-04T03:53:45.323Z,7.45
2022-10-04T03:56:23.119Z,8.13
2022-10-04T03:58:50.191Z,7.95
2022-10-04T04:01:16.515Z,8.07
2022-10-04T04:03:45.847Z,7.63
2022-10-04T04:06:15.804Z,8.13
2022-10-04T04:08:44.506Z,8.07
2022-10-04T04:11:18.819Z,8.05
2022-10-04T04:13:45.113Z,8.03
2022-10-04T04:16:11.714Z,9.70
2022-10-04T04:18:40.470Z,7.78
2022-10-04T04:21:08.021Z,7.60
2022-10-04T04:23:36.529Z,8.57
2022-10-04T04:26:23.451Z,7.78
2022-10-04T04:29:13.173Z,9.55
2022-10-04T04:31:45.878Z,7.82
2022-10-04T04:34:24.751Z,8.10
2022-10-04T04:36:52.805Z,7.82
2022-10-04T04:39:40.821Z,8.48
2022-10-04T04:42:07.194Z,8.40
2022-10-04T04:44:33.902Z,9.25
2022-10-04T04:47:00.520Z,9.52
2022-10-04T04:49:29.171Z,8.93
2022-10-04T04:51:57.891Z,7.82
2022-10-04T04:54:25.819Z,7.82
2022-10-04T04:56:52.817Z,9.82
2022-10-04T04:59:19.823Z,9.27
2022-10-04T05:01:47.243Z,7.47
2022-10-04T05:04:13.551Z,8.38
2022-10-04T05:06:41.271Z,8.82
2022-10-04T05:09:22.195Z,8.60
2022-10-04T05:11:50.093Z,8.32
2022-10-04T05:14:17.430Z,7.20
2022-10-04T05:16:47.175Z,8.45
2022-10-04T05:19:13.569Z,9.70
2022-10-04T05:21:43.031Z,8.25
2022-10-04T05:24:11.485Z,8.40
2022-10-04T05:26:37.872Z,8.57
2022-10-04T05:29:10.167Z,8.40
2022-10-04T05:31:39.557Z,11.05
2022-10-04T05:34:15.423Z,10.45
2022-10-04T05:36:48.727Z,11.43
2022-10-04T05:39:24.294Z,11.43
2022-10-04T05:42:09.434Z,11.52
2022-10-04T05:44:36.650Z,10.52
2022-10-04T05:47:06.690Z,10.50
2022-10-04T05:49:44.117Z,10.68
2022-10-04T05:52:30.315Z,11.25
2022-10-04T05:55:12.036Z,11.05
2022-10-04T05:57:57.992Z,10.98
2022-10-04T06:00:33.860Z,10.93
2022-10-04T06:03:00.191Z,9.63
2022-10-04T06:05:32.232Z,11.40
2022-10-04T06:08:02.061Z,10.57
2022-10-04T06:10:50.630Z,10.65
2022-10-04T06:13:40.904Z,10.95
2022-10-04T06:16:22.256Z,10.57
2022-10-04T06:18:59.177Z,10.23
2022-10-04T06:21:27.252Z,11.23
2022-10-04T06:24:02.468Z,10.45
2022-10-04T06:26:43.641Z,10.77
2022-10-04T06:29:18.140Z,9.43
2022-10-04T06:31:57.132Z,11.55
2022-10-04T06:34:26.822Z,10.63
2022-10-04T06:37:03.605Z,10.90
2022-10-04T06:39:47.360Z,10.82
2022-10-04T06:42:34.527Z,9.60
2022-10-04T06:45:12.641Z,9.98
2022-10-04T06:47:48.055Z,10.05
2022-10-04T06:50:33.789Z,10.20
2022-10-04T06:55:35.133Z,9.30
2022-10-04T06:58:20.079Z,10.40
2022-10-04T07:00:55.337Z,11.27
2022-10-04T07:05:53.542Z,9.48
2022-10-04T07:08:35.319Z,11.43
2022-10-04T07:11:13.670Z,11.02
2022-10-04T07:13:53.026Z,10.75
2022-10-04T07:16:26.835Z,10.75
2022-10-04T07:18:55.898Z,11.43
2022-10-04T07:21:23.940Z,11.98
2022-10-04T07:23:56.279Z,10.07
2022-10-04T07:26:25.585Z,8.80
2022-10-04T07:29:13.148Z,10.25
2022-10-04T07:31:41.062Z,9.43
2022-10-04T07:34:15.741Z,9.57
2022-10-04T07:36:45.271Z,8.35
2022-10-04T07:39:31.776Z,8.00
2022-10-04T07:42:21.542Z,10.13
2022-10-04T07:44:56.439Z,8.77
2022-10-04T07:47:25.692Z,8.98
2022-10-04T07:49:53.935Z,9.27
2022-10-04T07:52:20.247Z,8.85
2022-10-04T07:55:02.088Z,11.02
2022-10-04T07:57:47.101Z,9.77
2022-10-04T08:00:21.982Z,8.73
2022-10-04T08:03:07.024Z,7.40
2022-10-04T08:05:45.524Z,7.25
2022-10-04T08:08:30.277Z,8.63
2022-10-04T08:11:15.229Z,6.97
2022-10-04T08:13:51.186Z,8.57
2022-10-04T08:16:31.129Z,7.68
2022-10-04T08:18:57.359Z,7.93
2022-10-04T08:21:31.776Z,9.50
2022-10-04T08:24:24.828Z,9.55
2022-10-04T08:26:54.188Z,7.88
2022-10-04T08:29:42.471Z,7.57
2022-10-04T08:32:26.024Z,7.80
2022-10-04T08:35:07.324Z,7.22
2022-10-04T08:37:53.605Z,7.35
2022-10-04T08:40:28.963Z,7.75
2022-10-04T08:43:13.847Z,7.30
2022-10-04T08:45:58.721Z,7.53
2022-10-04T08:48:38.671Z,8.10
2022-10-04T08:51:04.894Z,7.72
2022-10-04T08:54:00.355Z,7.25
2022-10-04T08:56:32.843Z,6.40
2022-10-04T08:59:00.317Z,8.13
2022-10-04T09:01:57.374Z,6.93
2022-10-04T09:04:29.644Z,5.32
2022-10-04T09:06:56.164Z,6.72
2022-10-04T09:09:35.054Z,5.78
2022-10-04T09:12:10.533Z,6.05
2022-10-04T09:14:36.760Z,6.22
2022-10-04T09:17:21.835Z,5.45
2022-10-04T09:22:19.831Z,5.50
2022-10-04T09:24:55.107Z,5.78
2022-10-04T09:27:54.557Z,6.07
2022-10-04T09:30:40.155Z,5.55
2022-10-04T09:33:25.904Z,5.82
2022-10-04T09:36:10.767Z,5.80
2022-10-04T09:38:38.832Z,5.32
2022-10-04T09:41:05.082Z,6.13
2022-10-04T09:44:00.287Z,5.22
2022-10-04T09:46:45.387Z,5.82
2022-10-04T09:49:17.629Z,5.65
2022-10-04T09:52:05.238Z,6.07
2022-10-04T09:54:42.330Z,5.32
2022-10-04T09:57:19.454Z,5.53
2022-10-04T10:02:28.225Z,5.53
2022-10-04T10:05:02.143Z,5.72
2022-10-04T10:07:39.638Z,6.75
2022-10-04T10:10:34.937Z,5.53
2022-10-04T10:13:38.963Z,4.75
2022-10-04T10:16:25.678Z,4.80
2022-10-04T10:19:07.748Z,5.95
2022-10-04T10:21:37.152Z,5.95
2022-10-04T10:24:19.803Z,5.22
2022-10-04T10:26:52.062Z,4.22
2022-10-04T10:29:27.079Z,5.05
2022-10-04T10:32:09.228Z,5.32
2022-10-04T10:34:44.626Z,5.38
2022-10-04T10:37:13.672Z,4.75
2022-10-04T10:39:42.836Z,5.25
2022-10-04T10:42:14.691Z,5.15
2022-10-04T10:44:59.835Z,5.43
2022-10-04T10:47:35.493Z,5.22
2022-10-04T10:50:07.663Z,4.97
2022-10-04T10:52:55.467Z,4.70
2022-10-04T10:55:50.726Z,5.05
2022-10-04T10:58:22.925Z,5.22
2022-10-04T11:00:59.324Z,5.05
2022-10-04T11:03:44.158Z,4.18
2022-10-04T11:06:17.257Z,4.90
2022-10-04T11:09:02.307Z,5.40
2022-10-04T11:11:34.376Z,5.18
2022-10-04T11:14:12.557Z,6.00
2022-10-04T11:16:38.782Z,4.38
2022-10-04T11:19:36.025Z,4.88
2022-10-04T11:22:20.949Z,4.47
2022-10-04T11:24:59.374Z,4.03
2022-10-04T11:27:28.746Z,4.20
2022-10-04T11:30:14.094Z,4.28
2022-10-04T11:32:40.391Z,4.50
2022-10-04T11:35:25.229Z,3.95
2022-10-04T11:38:16.009Z,4.43
2022-10-04T11:40:42.286Z,5.30
2022-10-04T11:43:11.686Z,3.67
2022-10-04T11:45:38.301Z,3.75
2022-10-04T11:48:16.522Z,4.82
2022-10-04T11:51:03.115Z,4.43
2022-10-04T11:53:32.298Z,4.90
2022-10-04T11:56:04.375Z,4.47
2022-10-04T11:58:43.851Z,5.03
2022-10-04T12:01:15.862Z,5.80
2022-10-04T12:03:48.064Z,4.55
2022-10-04T12:06:34.983Z,5.25
2022-10-04T12:09:19.801Z,5.80
2022-10-04T12:12:04.719Z,4.70
2022-10-04T12:14:31.102Z,5.35
2022-10-04T12:17:18.570Z,4.82
2022-10-04T12:19:59.311Z,5.47
2022-10-04T12:22:38.766Z,5.15
2022-10-04T12:25:08.039Z,5.05
2022-10-04T12:27:52.635Z,4.28
2022-10-04T12:30:30.811Z,5.63
2022-10-04T12:33:19.109Z,4.70
2022-10-04T12:36:14.811Z,4.78
2022-10-04T12:38:53.316Z,3.72
2022-10-04T12:41:19.626Z,4.57
2022-10-04T12:43:58.608Z,4.40
2022-10-04T12:46:37.520Z,3.45
2022-10-04T12:49:21.760Z,3.85
2022-10-04T12:52:08.144Z,4.18
2022-10-04T12:54:37.833Z,3.60
2022-10-04T12:57:08.008Z,3.60
2022-10-04T12:59:42.294Z,3.95
2022-10-04T13:02:27.147Z,3.63
2022-10-04T13:04:55.139Z,4.03
2022-10-04T13:07:29.632Z,3.67
2022-10-04T13:10:24.149Z,3.50
2022-10-04T13:13:05.060Z,4.03
2022-10-04T13:18:34.677Z,3.30
2022-10-04T13:21:01.045Z,3.50
2022-10-04T13:23:27.270Z,3.58
2022-10-04T13:26:04.549Z,2.78
2022-10-04T13:28:38.065Z,3.63
2022-10-04T13:31:24.431Z,4.28
2022-10-04T13:33:58.105Z,3.47
2022-10-04T13:36:30.015Z,4.18
2022-10-04T13:39:07.450Z,4.40
2022-10-04T13:41:45.767Z,4.05
2022-10-04T13:44:24.333Z,3.78
2022-10-04T13:46:52.163Z,3.88
2022-10-04T13:49:37.169Z,4.78
2022-10-04T13:52:40.810Z,3.92
2022-10-04T13:55:25.913Z,3.95
2022-10-04T13:58:07.631Z,3.67
2022-10-04T14:01:00.074Z,4.35
2022-10-04T14:03:32.157Z,3.85
2022-10-04T14:06:20.144Z,3.55
2022-10-04T14:08:55.106Z,3.92
2022-10-04T14:11:41.657Z,4.07
2022-10-04T14:14:14.573Z,4.13
2022-10-04T14:16:57.264Z,3.90
2022-10-04T14:19:35.935Z,3.70
2022-10-04T14:22:22.995Z,4.00
2022-10-04T14:25:18.878Z,3.92
2022-10-04T14:27:53.359Z,3.15
2022-10-04T14:30:23.083Z,4.03
2022-10-04T14:33:08.214Z,4.03
2022-10-04T14:35:39.844Z,3.40
2022-10-04T14:38:15.654Z,3.70
2022-10-04T14:40:51.396Z,3.85
2022-10-04T14:43:17.700Z,4.18
2022-10-04T14:45:55.420Z,3.38
2022-10-04T14:48:21.763Z,3.03
2022-10-04T14:50:53.060Z,3.92
2022-10-04T14:53:36.764Z,3.10
2022-10-04T14:56:03.005Z,3.72
2022-10-04T14:58:48.279Z,3.80
2022-10-04T15:01:18.440Z,3.25
2022-10-04T15:04:13.568Z,3.28
2022-10-04T15:06:49.671Z,3.78
2022-10-04T15:09:28.341Z,2.83
2022-10-04T15:12:36.387Z,3.63
2022-10-04T15:15:14.213Z,4.38
2022-10-04T15:17:43.409Z,3.78
2022-10-04T15:20:24.962Z,4.68
2022-10-04T15:22:55.261Z,4.22
2022-10-04T15:25:40.358Z,4.63
2022-10-04T15:28:25.335Z,3.92
2022-10-04T15:30:51.722Z,3.70
2022-10-04T15:33:36.169Z,3.85
2022-10-04T15:36:20.838Z,3.42
2022-10-04T15:38:57.179Z,4.60
2022-10-04T15:41:33.181Z,3.72
2022-10-04T15:44:12.718Z,4.82
2022-10-04T15:46:45.383Z,4.20
2022-10-04T15:49:21.773Z,3.97
2022-10-04T15:51:48.567Z,4.75
2022-10-04T15:54:18.378Z,4.00
2022-10-04T15:56:49.091Z,3.70
2022-10-04T15:59:19.318Z,3.88
2022-10-04T16:01:55.096Z,4.05
2022-10-04T16:04:33.638Z,4.07
2022-10-04T16:07:19.499Z,3.97
2022-10-04T16:09:51.509Z,4.38
2022-10-04T16:12:38.997Z,4.47
2022-10-04T16:15:31.592Z,6.20
2022-10-04T16:18:12.205Z,5.25
2022-10-04T16:20:55.272Z,4.85
2022-10-04T16:23:29.040Z,4.75
2022-10-04T16:25:59.471Z,5.10
2022-10-04T16:28:43.896Z,4.88
2022-10-04T16:31:16.573Z,5.00
2022-10-04T16:33:58.806Z,5.57
2022-10-04T16:36:45.631Z,4.88
2022-10-04T16:39:31.307Z,5.63
2022-10-04T16:42:05.916Z,4.85
2022-10-04T16:44:53.513Z,5.47
2022-10-04T16:47:25.752Z,5.65
2022-10-04T16:49:54.928Z,5.97
2022-10-04T16:52:28.207Z,6.55
2022-10-04T16:54:54.955Z,6.43
2022-10-04T16:57:22.449Z,7.65
2022-10-04T16:59:56.077Z,7.78
2022-10-04T17:02:41.751Z,7.53
2022-10-04T17:07:40.792Z,9.77
2022-10-04T17:10:21.222Z,8.25
2022-10-04T17:13:13.801Z,8.30
2022-10-04T17:15:48.212Z,8.00
2022-10-04T17:18:29.880Z,7.25
2022-10-04T17:20:58.581Z,8.48
2022-10-04T17:23:37.759Z,6.93
2022-10-04T17:26:40.766Z,7.03
2022-10-04T17:29:15.792Z,6.75
2022-10-04T17:31:53.463Z,6.93
2022-10-04T17:34:23.298Z,5.90
2022-10-04T17:37:01.268Z,7.13
2022-10-04T17:39:27.491Z,5.93
2022-10-04T17:41:56.851Z,6.07
2022-10-04T17:44:34.077Z,6.47
2022-10-04T17:47:00.349Z,6.20
2022-10-04T17:49:52.898Z,5.95
2022-10-04T17:52:52.816Z,5.88
2022-10-04T17:55:24.299Z,5.95
2022-10-04T17:58:04.035Z,6.47
2022-10-04T18:00:47.546Z,6.25
2022-10-04T18:03:19.351Z,5.85
2022-10-04T18:05:54.508Z,7.25
2022-10-04T18:08:26.868Z,7.07
2022-10-04T18:10:58.422Z,5.95
2022-10-04T18:13:33.474Z,6.60
2022-10-04T18:16:08.155Z,6.40
2022-10-04T18:18:38.780Z,6.40
2022-10-04T18:21:23.774Z,6.38
2022-10-04T18:23:54.498Z,6.20
2022-10-04T18:26:21.738Z,5.93
2022-10-04T18:28:49.135Z,5.55
2022-10-04T18:31:29.913Z,5.80
2022-10-04T18:34:16.471Z,5.18
2022-10-04T18:36:46.093Z,6.03
2022-10-04T18:39:12.840Z,5.10
2022-10-04T18:41:51.615Z,6.13
2022-10-04T18:44:22.026Z,4.75
2022-10-04T18:46:51.080Z,5.88
2022-10-04T18:49:24.516Z,5.28
2022-10-04T18:51:50.770Z,5.93
2022-10-04T18:54:35.911Z,5.20
2022-10-04T18:57:08.267Z,6.20
2022-10-04T18:59:56.198Z,5.20
2022-10-04T19:02:35.148Z,5.72
2022-10-04T19:05:25.643Z,6.88
2022-10-04T19:07:51.931Z,5.93
2022-10-04T19:10:37.057Z,5.35
2022-10-04T19:13:09.988Z,5.88
2022-10-04T19:15:39.032Z,5.65
2022-10-04T19:18:08.291Z,6.28
2022-10-04T19:20:34.559Z,5.93
2022-10-04T19:23:00.787Z,5.90
2022-10-04T19:26:02.018Z,6.57
2022-10-04T19:28:32.895Z,5.82
2022-10-04T19:31:02.952Z,5.82
2022-10-04T19:33:29.218Z,5.53
2022-10-04T19:36:04.585Z,6.13
2022-10-04T19:41:15.584Z,5.82
2022-10-04T19:43:53.194Z,5.60
2022-10-04T19:46:25.403Z,5.47
2022-10-04T19:48:52.500Z,5.43
2022-10-04T19:51:39.889Z,6.20
2022-10-04T19:54:15.665Z,6.70
2022-10-04T19:56:45.432Z,5.88
2022-10-04T19:59:23.285Z,6.55
2022-10-04T20:01:52.639Z,6.75
2022-10-04T20:04:41.980Z,6.47
2022-10-04T20:07:18.891Z,6.63
2022-10-04T20:09:51.496Z,7.40
2022-10-04T20:12:32.577Z,7.05
2022-10-04T20:15:28.391Z,8.30
2022-10-04T20:17:54.966Z,5.97
2022-10-04T20:20:40.291Z,6.30
2022-10-04T20:23:07.717Z,9.20
2022-10-04T20:25:42.858Z,5.97
2022-10-04T20:28:09.766Z,6.70
2022-10-04T20:30:50.846Z,6.10
2022-10-04T20:33:36.800Z,6.40
2022-10-04T20:36:06.266Z,6.45
2022-10-04T20:38:38.429Z,6.97
2022-10-04T20:41:04.693Z,6.05
2022-10-04T20:43:32.067Z,5.97
2022-10-04T20:45:58.661Z,6.13
2022-10-04T20:48:26.074Z,5.80
2022-10-04T20:50:52.768Z,5.60
2022-10-04T20:53:20.571Z,6.18
2022-10-04T20:55:47.286Z,6.25
2022-10-04T20:58:21.835Z,6.13
2022-10-04T21:00:52.914Z,6.43
2022-10-04T21:03:19.334Z,6.75
2022-10-04T21:05:58.189Z,6.45
2022-10-04T21:08:25.436Z,5.78
2022-10-04T21:11:01.434Z,5.57
2022-10-04T21:13:43.131Z,6.00
2022-10-04T21:16:09.942Z,5.43
2022-10-04T21:18:36.371Z,6.57
2022-10-04T21:21:02.742Z,6.72
2022-10-04T21:23:31.339Z,5.57
2022-10-04T21:26:16.554Z,6.00
2022-10-04T21:28:42.891Z,6.32
2022-10-04T21:31:09.183Z,6.68
2022-10-04T21:33:35.811Z,6.57
2022-10-04T21:36:02.466Z,6.20
2022-10-04T21:38:28.933Z,5.93
2022-10-04T21:40:55.952Z,6.88
2022-10-04T21:43:22.961Z,5.78
2022-10-04T21:45:49.278Z,6.07
2022-10-04T21:48:15.678Z,6.78
2022-10-04T21:50:41.980Z,5.93
2022-10-04T21:53:08.303Z,5.70
2022-10-04T21:55:34.556Z,5.57
2022-10-04T21:58:00.923Z,5.68
2022-10-04T22:00:27.191Z,6.18
2022-10-04T22:02:53.502Z,5.53
2022-10-04T22:05:19.790Z,5.80
2022-10-04T22:07:46.192Z,5.93
2022-10-04T22:10:12.573Z,5.95
2022-10-04T22:12:38.913Z,6.18
2022-10-04T22:15:05.787Z,5.75
2022-10-04T22:17:32.043Z,6.10
2022-10-04T22:19:58.318Z,5.28
2022-10-04T22:22:24.563Z,6.50
2022-10-04T22:24:50.839Z,5.50
2022-10-04T22:27:19.163Z,5.75
2022-10-04T22:29:45.710Z,6.40
2022-10-04T22:32:21.515Z,6.22
2022-10-04T22:34:47.824Z,7.07
2022-10-04T22:37:14.127Z,6.25
2022-10-04T22:39:40.422Z,5.75
2022-10-04T22:42:07.523Z,5.97
2022-10-04T22:44:37.690Z,6.00
2022-10-04T22:47:06.651Z,6.18
2022-10-04T22:49:34.864Z,5.43
2022-10-04T22:52:03.971Z,5.38
2022-10-04T22:54:31.503Z,6.75
2022-10-04T22:56:58.123Z,5.75
2022-10-04T22:59:33.215Z,5.75
2022-10-04T23:01:59.911Z,6.05
2022-10-04T23:04:26.257Z,5.85
2022-10-04T23:06:53.095Z,4.82
2022-10-04T23:09:19.641Z,6.25
2022-10-04T23:11:46.224Z,5.18
2022-10-04T23:14:12.594Z,6.03
2022-10-04T23:16:39.131Z,4.25
2022-10-04T23:19:20.970Z,6.15
2022-10-04T23:21:48.427Z,5.85
2022-10-04T23:24:16.544Z,4.60
2022-10-04T23:26:44.692Z,4.78
2022-10-04T23:29:22.971Z,5.85
2022-10-04T23:31:50.086Z,5.10
2022-10-04T23:34:18.172Z,5.72
2022-10-04T23:36:45.462Z,5.85
2022-10-04T23:39:13.781Z,6.20
2022-10-04T23:41:40.149Z,5.30
2022-10-04T23:44:11.036Z,5.47
2022-10-04T23:46:37.314Z,5.15
2022-10-04T23:49:03.718Z,5.68
2022-10-04T23:51:30.083Z,5.47
2022-10-04T23:53:56.347Z,5.82
2022-10-04T23:56:24.180Z,6.20
2022-10-04T23:58:52.551Z,5.50
